• Join FlightAware (Why Join?)
  • Login
  • US Flag 
06:33PM EDT


 

Airport Tracker/Info


-or-


 

Live Flight TrackerFlight Track Log ✈ MAS193 ✈ 27-Apr-2013 ✈ VOBL / BLR - WMKK / KUL

Flight Track Log - Related Links

Times and Time Zones

All times are in EDT time to prevent confusion due to time zone crossing. See the MAS193 flight status page for this flight to view local times or setup timezone preferences in your user account.

Time Position Orientation Groundspeed Altitude Reporting Facility
EDT Latitude Longitude Course Direction KTS MPH feet Rate Location/Type
03:22PM 13.2070 77.7280 91° East 179 206 3,900  Level FlightAware
03:22PM 13.2060 77.7550 92° East 207 238 4,600 1,260 Climbing FlightAware
03:23PM 13.2060 77.7830 90° East 241 277 5,100 1,080 Climbing FlightAware
03:23PM 13.2060 77.8180 90° East 282 325 5,600 960 Climbing FlightAware
03:24PM 13.2060 77.8510 90° East 314 361 6,000 1,020 Climbing FlightAware
03:24PM 13.2050 77.8850 92° East 338 389 6,400 2,100 Climbing FlightAware
03:25PM 13.2000 77.9280 97° East 343 395 7,600 2,880 Climbing FlightAware
03:25PM 13.1860 77.9630 112° Southeast 345 397 8,800 2,460 Climbing FlightAware
03:25PM 13.1660 78.0100 114° Southeast 356 410 9,900 2,400 Climbing FlightAware
03:26PM 13.1340 78.0820 115° Southeast 367 422 11,800 2,580 Climbing FlightAware
03:27PM 13.1060 78.1460 114° Southeast 367 422 13,600 2,460 Climbing FlightAware
03:28PM 13.0780 78.2100 114° Southeast 375 432 15,100 1,800 Climbing FlightAware
03:28PM 13.0460 78.2830 114° Southeast 396 456 16,200 1,680 Climbing FlightAware
03:29PM 13.0150 78.3530 114° Southeast 403 464 17,500 1,920 Climbing FlightAware
03:30PM 12.9840 78.4350 111° Southeast 409 471 19,000 1,680 Climbing FlightAware
03:30PM 12.9630 78.5110 106° East 423 487 19,900 1,500 Climbing FlightAware
03:31PM 12.9410 78.5890 106° East 429 494 21,000 1,620 Climbing FlightAware
03:32PM 12.9170 78.6750 106° East 433 498 22,200 1,380 Climbing FlightAware
03:32PM 12.8950 78.7550 106° East 443 510 23,000 1,080 Climbing FlightAware
03:33PM 12.8690 78.8500 106° East 456 525 23,800 1,080 Climbing FlightAware
03:34PM 12.8460 78.9330 106° East 463 533 24,600 1,080 Climbing FlightAware
03:35PM 12.8220 79.0190 106° East 471 542 25,300 1,020 Climbing FlightAware
03:35PM 12.7960 79.1120 106° East 477 549 26,100 1,020 Climbing FlightAware
03:36PM 12.7710 79.2010 106° East 482 555 26,800 1,200 Climbing FlightAware
03:37PM 12.7430 79.3030 106° East 483 556 27,800 1,440 Climbing FlightAware
03:37PM 12.7190 79.3870 106° East 474 545 28,900 1,560 Climbing FlightAware
03:38PM 12.6950 79.4730 106° East 470 541 29,900 1,200 Climbing FlightAware
03:39PM 12.6760 79.5420 106° East 475 547 30,400 840 Climbing FlightAware
03:39PM 12.6470 79.6450 106° East 479 551 31,100 1,020 Climbing FlightAware
03:40PM 12.6240 79.7260 106° East 475 547 31,900 1,320 Climbing FlightAware
03:41PM 12.5950 79.8280 106° East 467 537 33,000 1,320 Climbing FlightAware
03:41PM 12.5730 79.9050 106° East 462 532 33,800 1,020 Climbing FlightAware
03:42PM 12.5410 80.0190 106° East 466 536 34,500 720 Climbing FlightAware
03:43PM 12.5190 80.0970 106° East 469 540 34,900 360 Climbing FlightAware
03:44PM 12.4930 80.1900 106° East 471 542 35,000 60 Climbing FlightAware
03:44PM 12.4650 80.2870 106° East 471 542 35,000  Level FlightAware
03:45PM 12.4450 80.3560 107° East 471 542 35,000  Level FlightAware
03:46PM 12.4200 80.4470 106° East 468 539 35,000  Level FlightAware
03:46PM 12.3900 80.5510 106° East 465 535 35,000  Level FlightAware
03:47PM 12.3690 80.6240 106° East 465 535 35,000  Level FlightAware
03:48PM 12.3430 80.7140 106° East 463 533 35,000  Level FlightAware
03:49PM 12.3170 80.8040 106° East 462 532 35,000  Level FlightAware
03:49PM 12.2920 80.8940 106° East 460 529 35,000  Level FlightAware
03:50PM 12.2680 80.9750 107° East 459 528 35,000  Level FlightAware
03:51PM 12.2370 81.0840 106° East 458 527 35,000  Level FlightAware
03:51PM 12.2150 81.1610 106° East 457 526 35,000  Level FlightAware
03:52PM 12.1840 81.2700 106° East 455 524 35,000  Level FlightAware
03:53PM 12.1620 81.3430 107° East 457 526 35,000  Level FlightAware
03:54PM 12.1330 81.4450 106° East 460 529 35,000  Level FlightAware
03:54PM 12.1090 81.5280 106° East 460 529 35,000  Level FlightAware
03:55PM 12.0820 81.6220 106° East 461 531 35,000  Level FlightAware
03:56PM 12.0570 81.7070 107° East 462 532 35,000  Level FlightAware
03:56PM 12.0310 81.7980 106° East 462 532 35,000  Level FlightAware
03:57PM 12.0070 81.8790 107° East 462 532 35,000  Level FlightAware
03:58PM 11.9810 81.9670 107° East 464 534 35,000  Level FlightAware
03:59PM 11.9570 82.0510 106° East 464 534 35,000  Level FlightAware
03:59PM 11.9340 82.1270 107° East 466 536 35,000  Level FlightAware
04:00PM 11.9080 82.2180 106° East 467 537 35,000  Level FlightAware
04:01PM 11.8840 82.3030 106° East 467 537 35,000  Level FlightAware
04:01PM 11.8640 82.3750 106° East 467 537 35,000  Level FlightAware
04:02PM 11.8390 82.4650 106° East 467 537 35,000  Level FlightAware
04:03PM 11.8180 82.5370 107° East 467 537 35,000  Level FlightAware
04:03PM 11.7980 82.6100 106° East 467 537 35,000  Level FlightAware
04:04PM 11.7780 82.6820 106° East 467 537 35,000  Level FlightAware
04:05PM 11.7580 82.7540 106° East 467 537 35,000  Level FlightAware
04:06PM 11.7320 82.8440 106° East 467 537 35,000  Level FlightAware
04:06PM 11.7120 82.9160 106° East 467 537 35,000  Level FlightAware
04:07PM 11.6920 82.9880 106° East 467 537 35,000  Level FlightAware
04:08PM 11.6720 83.0600 106° East 467 537 35,000  Level FlightAware
04:08PM 11.6510 83.1320 107° East 467 537 35,000  Level FlightAware
04:09PM 11.6260 83.2220 106° East 467 537 35,000  Level FlightAware
04:10PM 11.6060 83.2950 106° East 467 537 35,000  Level FlightAware
04:12PM 11.5274 83.4710 114° Southeast  Level Estimated
04:13PM 11.4816 83.5734 115° Southeast  Level Estimated
04:14PM 11.4357 83.6759 115° Southeast  Level Estimated
04:15PM 11.3898 83.7783 115° Southeast  Level Estimated
04:16PM 11.3439 83.8806 115° Southeast  Level Estimated
04:17PM 11.2979 83.9829 115° Southeast  Level Estimated
04:18PM 11.2519 84.0853 115° Southeast  Level Estimated
04:19PM 11.2058 84.1875 115° Southeast  Level Estimated
04:20PM 11.1597 84.2897 115° Southeast  Level Estimated
04:21PM 11.1136 84.3919 115° Southeast  Level Estimated
04:22PM 11.0675 84.4941 115° Southeast  Level Estimated
04:23PM 11.0213 84.5962 115° Southeast  Level Estimated
04:24PM 10.9751 84.6983 115° Southeast  Level Estimated
04:25PM 10.9288 84.8004 115° Southeast  Level Estimated
04:26PM 10.8825 84.9025 115° Southeast  Level Estimated
04:27PM 10.8362 85.0045 115° Southeast  Level Estimated
04:28PM 10.7899 85.1064 115° Southeast  Level Estimated
04:29PM 10.7435 85.2084 115° Southeast  Level Estimated
04:30PM 10.6970 85.3103 115° Southeast  Level Estimated
04:31PM 10.6506 85.4122 115° Southeast  Level Estimated
04:32PM 10.6041 85.5140 115° Southeast  Level Estimated
04:33PM 10.5576 85.6158 115° Southeast  Level Estimated
04:34PM 10.5110 85.7176 115° Southeast  Level Estimated
04:35PM 10.4644 85.8194 115° Southeast  Level Estimated
04:36PM 10.4178 85.9211 115° Southeast  Level Estimated
04:37PM 10.3712 86.0228 115° Southeast  Level Estimated
04:38PM 10.3245 86.1245 115° Southeast  Level Estimated
04:39PM 10.2778 86.2261 115° Southeast  Level Estimated
04:40PM 10.2310 86.3277 115° Southeast  Level Estimated
04:41PM 10.1843 86.4293 115° Southeast  Level Estimated
04:42PM 10.1375 86.5309 115° Southeast  Level Estimated
04:43PM 10.0906 86.6324 115° Southeast  Level Estimated
04:44PM 10.0437 86.7339 115° Southeast  Level Estimated
04:45PM 9.9969 86.8353 115° Southeast  Level Estimated
04:46PM 9.9499 86.9368 115° Southeast  Level Estimated
04:47PM 9.9030 87.0382 115° Southeast  Level Estimated
04:48PM 9.8560 87.1395 115° Southeast  Level Estimated
04:49PM 9.8090 87.2409 115° Southeast  Level Estimated
04:50PM 9.7619 87.3422 115° Southeast  Level Estimated
04:51PM 9.7148 87.4435 115° Southeast  Level Estimated
04:52PM 9.6677 87.5447 115° Southeast  Level Estimated
04:53PM 9.6206 87.6460 115° Southeast  Level Estimated
04:54PM 9.5734 87.7472 115° Southeast  Level Estimated
04:55PM 9.5262 87.8483 115° Southeast  Level Estimated
04:56PM 9.4782 87.9512 115° Southeast  Level Estimated
04:57PM 9.4301 88.0541 115° Southeast  Level Estimated
04:58PM 9.3820 88.1569 115° Southeast  Level Estimated
04:59PM 9.3338 88.2597 115° Southeast  Level Estimated
05:00PM 9.2857 88.3625 115° Southeast  Level Estimated
05:01PM 9.2374 88.4653 115° Southeast  Level Estimated
05:02PM 9.1892 88.5680 115° Southeast  Level Estimated
05:03PM 9.1410 88.6707 115° Southeast  Level Estimated
05:04PM 9.0927 88.7734 115° Southeast  Level Estimated
05:05PM 9.0444 88.8760 115° Southeast  Level Estimated
05:06PM 8.9960 88.9786 115° Southeast  Level Estimated
05:07PM 8.9477 89.0812 116° Southeast  Level Estimated
05:08PM 8.8993 89.1837 116° Southeast  Level Estimated
05:09PM 8.8509 89.2863 116° Southeast  Level Estimated
05:10PM 8.8024 89.3888 116° Southeast  Level Estimated
05:11PM 8.7539 89.4913 116° Southeast  Level Estimated
05:12PM 8.7054 89.5937 116° Southeast  Level Estimated
05:13PM 8.6569 89.6961 116° Southeast  Level Estimated
05:14PM 8.6083 89.7985 116° Southeast  Level Estimated
05:15PM 8.5597 89.9009 116° Southeast  Level Estimated
05:16PM 8.5111 90.0032 116° Southeast  Level Estimated
05:17PM 8.4625 90.1056 116° Southeast  Level Estimated
05:18PM 8.4138 90.2078 116° Southeast  Level Estimated
05:19PM 8.3651 90.3101 116° Southeast  Level Estimated
05:20PM 8.3164 90.4124 116° Southeast  Level Estimated
05:21PM 8.2676 90.5146 116° Southeast  Level Estimated
05:22PM 8.2189 90.6168 116° Southeast  Level Estimated
05:23PM 8.1701 90.7189 116° Southeast  Level Estimated
05:24PM 8.1212 90.8211 116° Southeast  Level Estimated
05:25PM 8.0724 90.9232 116° Southeast  Level Estimated
05:26PM 8.0235 91.0253 116° Southeast  Level Estimated
05:27PM 7.9746 91.1274 116° Southeast  Level Estimated
05:28PM 7.9257 91.2294 116° Southeast  Level Estimated
05:29PM 7.8767 91.3314 116° Southeast  Level Estimated
05:30PM 7.8278 91.4334 116° Southeast  Level Estimated
05:31PM 7.7787 91.5354 116° Southeast  Level Estimated
05:32PM 7.7297 91.6373 116° Southeast  Level Estimated
05:33PM 7.6807 91.7393 116° Southeast  Level Estimated
05:34PM 7.6316 91.8411 116° Southeast  Level Estimated
05:35PM 7.5825 91.9430 116° Southeast  Level Estimated
05:36PM 7.5334 92.0449 116° Southeast  Level Estimated
05:37PM 7.4843 92.1467 116° Southeast  Level Estimated
05:38PM 7.4351 92.2485 116° Southeast  Level Estimated
05:39PM 7.3859 92.3503 116° Southeast  Level Estimated
05:40PM 7.3367 92.4521 116° Southeast  Level Estimated
05:41PM 7.2874 92.5538 116° Southeast  Level Estimated
05:42PM 7.2382 92.6555 116° Southeast  Level Estimated
05:43PM 7.1889 92.7572 116° Southeast  Level Estimated
05:44PM 7.1396 92.8589 116° Southeast  Level Estimated
05:45PM 7.0903 92.9605 116° Southeast  Level Estimated
05:46PM 7.0409 93.0622 116° Southeast  Level Estimated
05:47PM 6.9915 93.1638 116° Southeast  Level Estimated
05:48PM 6.9422 93.2654 116° Southeast  Level Estimated
05:49PM 6.8927 93.3669 116° Southeast  Level Estimated
05:50PM 6.8433 93.4685 116° Southeast  Level Estimated
05:51PM 6.7939 93.5700 116° Southeast  Level Estimated
05:52PM 6.7444 93.6715 116° Southeast  Level Estimated
05:53PM 6.6949 93.7729 116° Southeast  Level Estimated
05:54PM 6.6454 93.8744 116° Southeast  Level Estimated
05:55PM 6.5958 93.9759 116° Southeast  Level Estimated
05:56PM 6.5463 94.0773 116° Southeast  Level Estimated
05:57PM 6.4967 94.1787 116° Southeast  Level Estimated
05:58PM 6.4471 94.2801 116° Southeast  Level Estimated
05:59PM 6.3975 94.3814 116° Southeast  Level Estimated
06:00PM 6.3478 94.4827 116° Southeast  Level Estimated
06:01PM 6.2982 94.5841 116° Southeast  Level Estimated
06:02PM 6.2485 94.6854 116° Southeast  Level Estimated
06:03PM 6.1988 94.7867 116° Southeast  Level Estimated
06:04PM 6.1491 94.8879 116° Southeast  Level Estimated
06:05PM 6.0993 94.9892 116° Southeast  Level Estimated
06:06PM 6.0496 95.0904 116° Southeast  Level Estimated
06:07PM 5.9998 95.1916 116° Southeast  Level Estimated
06:08PM 5.9500 95.2928 116° Southeast  Level Estimated
06:09PM 5.9002 95.3939 116° Southeast  Level Estimated
06:10PM 5.8503 95.4951 116° Southeast  Level Estimated
06:11PM 5.8005 95.5962 116° Southeast  Level Estimated
06:12PM 5.7506 95.6973 116° Southeast  Level Estimated
06:13PM 5.7007 95.7984 116° Southeast  Level Estimated
06:14PM 5.6508 95.8995 116° Southeast  Level Estimated
06:15PM 5.6009 96.0006 116° Southeast  Level Estimated
06:16PM 5.5510 96.1016 116° Southeast  Level Estimated
06:17PM 5.5010 96.2026 116° Southeast  Level Estimated
06:18PM 5.4511 96.3036 116° Southeast  Level Estimated
06:19PM 5.4011 96.4046 116° Southeast  Level Estimated
06:20PM 5.3511 96.5056 116° Southeast  Level Estimated
06:21PM 5.3011 96.6066 116° Southeast  Level Estimated
06:21PM 4.4460 98.3810 116° Southeast 452 520 35,000  Level FlightAware
06:21PM 4.4030 98.4610 118° Southeast 452 520 35,000  Level FlightAware
06:22PM 4.3640 98.5330 119° Southeast 457 526 35,000  Level FlightAware
06:23PM 4.3190 98.6140 119° Southeast 465 535 35,000  Level FlightAware
06:23PM 4.2790 98.6870 119° Southeast 464 534 35,000  Level FlightAware
06:24PM 4.2320 98.7740 118° Southeast 465 535 35,000  Level FlightAware
06:25PM 4.1870 98.8570 119° Southeast 464 534 35,000  Level FlightAware
06:26PM 4.1450 98.9340 119° Southeast 463 533 35,000  Level FlightAware
06:26PM 4.1030 99.0100 119° Southeast 460 529 35,000  Level FlightAware
06:27PM 4.0580 99.0930 119° Southeast 458 527 35,000  Level FlightAware
06:28PM 4.0180 99.1660 119° Southeast 458 527 35,000  Level FlightAware
06:28PM 3.9760 99.2430 119° Southeast 459 528 35,000  Level FlightAware
06:29PM 3.9310 99.3270 118° Southeast 457 526 35,000  Level FlightAware
06:30PM 3.8910 99.4000 119° Southeast 455 524 35,000  Level FlightAware
06:31PM 3.8440 99.4840 119° Southeast 455 524 35,000  Level FlightAware
06:31PM 3.8050 99.5570 118° Southeast 455 524 35,000  Level FlightAware
06:32PM 3.7590 99.6410 119° Southeast 455 524 35,000  Level FlightAware
06:33PM 3.7190 99.7150 118° Southeast 456 525 35,000  Level FlightAware
06:33PM 3.6780 99.7890 119° Southeast 457 526 35,000  Level FlightAware
06:34PM 3.6320 99.8720 119° Southeast 459 528 35,000  Level FlightAware
06:35PM 3.5910 99.9480 118° Southeast 460 529 35,000  Level FlightAware
06:35PM 3.5470 100.0280 119° Southeast 462 532 35,000  Level FlightAware
06:36PM 3.5060 100.1030 119° Southeast 464 534 35,000  Level FlightAware
06:37PM 3.4770 100.1550 119° Southeast 465 535 35,000  Level FlightAware
06:38PM 3.4160 100.2680 118° Southeast 465 535 35,000 -120 Level FlightAware
06:38PM 3.3780 100.3440 117° Southeast 454 522 34,900 -1,380 Descending FlightAware
06:39PM 3.3420 100.4200 115° Southeast 452 520 33,200 -2,400 Descending FlightAware
06:40PM 3.3090 100.4870 116° Southeast 446 513 31,700 -2,280 Descending FlightAware
06:41PM 3.2470 100.5960 120° Southeast 437 503 29,400 -2,340 Descending FlightAware
06:41PM 3.2030 100.6720 120° Southeast 433 498 27,700 -2,160 Descending FlightAware
06:42PM 3.1650 100.7400 119° Southeast 427 491 26,400 -1,980 Descending FlightAware
06:43PM 3.1280 100.8040 120° Southeast 420 483 25,100 -2,100 Descending FlightAware
06:43PM 3.0820 100.8840 120° Southeast 411 473 23,500 -1,860 Descending FlightAware
06:44PM 3.0500 100.9420 119° Southeast 401 461 22,500 -1,500 Descending FlightAware
06:45PM 3.0070 101.0170 120° Southeast 384 442 21,400 -1,560 Descending FlightAware
06:45PM 2.9710 101.0800 120° Southeast 373 429 20,300 -1,620 Descending FlightAware
06:46PM 2.9380 101.1380 120° Southeast 364 419 19,300 -1,620 Descending FlightAware
06:47PM 2.9050 101.1960 120° Southeast 359 413 18,200 -1,800 Descending FlightAware
06:47PM 2.8760 101.2470 120° Southeast 352 405 17,100 -1,920 Descending FlightAware
06:48PM 2.8310 101.3240 120° Southeast 345 397 15,400 -1,800 Descending FlightAware
06:49PM 2.7930 101.3700 130° Southeast 340 391 14,300 -1,800 Descending FlightAware
06:50PM 2.7410 101.4420 126° Southeast 333 383 12,600 -1,980 Descending FlightAware
06:51PM 2.7070 101.4930 124° Southeast 322 371 11,200 -2,100 Descending FlightAware
06:51PM 2.6730 101.5450 123° Southeast 317 365 9,700 -1,800 Descending FlightAware
06:52PM 2.6410 101.5930 124° Southeast 298 343 8,700 -1,320 Descending FlightAware
06:52PM 2.6240 101.6190 123° Southeast 282 325 8,300 -900 Descending FlightAware
06:53PM 2.6020 101.6510 125° Southeast 262 302 7,900 -480 Descending FlightAware
06:53PM 2.5880 101.6730 122° Southeast 262 302 7,900 -1,320 Level FlightAware
06:54PM 2.5650 101.7080 123° Southeast 254 292 6,600 -1,680 Descending FlightAware
06:54PM 2.5460 101.7360 124° Southeast 246 283 6,100 -900 Descending FlightAware
06:55PM 2.5380 101.7810 100° East 228 262 5,600 -1,080 Descending FlightAware
06:56PM 2.5690 101.7950 24° Northeast 204 235 4,800 -1,320 Descending FlightAware
06:56PM 2.5890 101.7960 North 196 226 4,300 -1,500 Descending FlightAware
06:56PM 2.6090 101.7890 341° North 184 212 3,700 -1,740 Descending FlightAware
06:57PM 2.6280 101.7750 324° Northwest 175 201 3,000 -1,440 Descending FlightAware
06:57PM 2.6420 101.7660 327° Northwest 168 193 2,400 -1,500 Descending FlightAware
06:58PM 2.6620 101.7530 327° Northwest 166 191 1,500 -1,140 Descending FlightAware
06:58PM 2.6820 101.7390 325° Northwest 166 191 1,200 -540 Descending FlightAware
07:01PM 2.7456 101.7099 335° Northwest  Level Estimated
07:02PM 2.7456 101.7099 236° Southwest  Level Estimated
07:03PM 2.7456 101.7099 236° Southwest  Level Estimated
07:04PM 2.7456 101.7099 236° Southwest  Level Estimated
07:05PM 2.7456 101.7099 236° Southwest  Level Estimated
07:06PM 2.7456 101.7099 236° Southwest  Level Estimated
07:07PM 2.7456 101.7099 236° Southwest  Level Estimated
07:08PM 2.7456 101.7099 236° Southwest  Level Estimated
07:09PM 2.7456 101.7099 236° Southwest  Level Estimated
07:10PM 2.7456 101.7099 236° Southwest  Level Estimated
07:11PM 2.7456 101.7099 236° Southwest  Level Estimated
07:12PM 2.7456 101.7099 236° Southwest  Level Estimated
07:13PM 2.7456 101.7099 236° Southwest  Level Estimated
07:14PM 2.7456 101.7099 236° Southwest  Level Estimated